Fort Shafter, HI

12:50 AM HST on May 23, 2015 (GMT -1000)
Kalawahine | | Change Station
CLOSE
Current Station
Personal Weather Station
Location: Hon, HI
Elevation: 269 ft
Nearby Weather Stations

Elev 269 ft 21.32 °N, 157.84 °W | Updated 26 minutes ago

Mostly Cloudy
Mostly Cloudy
71.4 °F
Feels Like 74 °F
N
4.2
Wind Variable Wind from ENE

Today
High -- | Low -- °F
--% Chance of Precip.
Yesterday
High -- | Low -- °F
Precip. -- in
5:50 AM 7:06 PM
Waxing Crescent, 29% visible
Pressure 30.03 in
Visibility 10.0 miles
Clouds Few 2700 ft
Mostly Cloudy 5000 ft
Mostly Cloudy 10000 ft
Heat Index 74 °F
Dew Point 61 °F
Humidity 70%
Rainfall 0.00 in
Snow Depth Not available.
UV 0 out of 12
Pollen Not available.
Air Quality Not available.
Flu Activity Local Activity
METAR PHNL 230953Z 34005KT 10SM FEW027 BKN050 BKN100 23/19 A3003 RMK AO2 SLP169 T02280189 402890211

More Conditions Fewer Conditions

Pressure 30.03 in
Visibility 10.0 miles
Clouds Few 2700 ft
Mostly Cloudy 5000 ft
Mostly Cloudy 10000 ft
Heat Index 74 °F
Dew Point 61 °F
Humidity 70%
Rainfall 0.00 in
Snow Depth Not available.
UV 0 out of 12
Pollen Not available.
Air Quality Not available.
Flu Activity Local Activity
METAR PHNL 230953Z 34005KT 10SM FEW027 BKN050 BKN100 23/19 A3003 RMK AO2 SLP169 T02280189 402890211

More Conditions Fewer Conditions

10-Day Weather Forecast

Almanac

Astronomy

May. 23, 2015 Rise Set
Actual Time
Civil Twilight
Nautical Twilight
Astronomical Twilight
Moon
Length of Visible Light
Length of Day
Tomorrow will be .
, % of the Moon is Illuminated

Today's Extremes

State Highs State Lows

Community

WunderPhotos

Upload Photos

1,823,409 photos uploaded!

WunderBlogs® & News

Nearby

Air Quality

  Air Quality AQ Index Pollutant
Not available.

Snow Depth

Station Depth Elevation

Earthquake Activity

City Distance Mag. Time & Date
Minimum magnitude displayed is 2.5.

Coastal Water Temperatures

Place Temperature

Stations

Nearby Weather Stations

Station Location Temp. Windchill Dew Point Humidity Wind Precip. Elev Updated Type